Time;durP1;ratioP1;P1;durP2;ratioP2;P2;SDS_P1;SDS_P2;PMS_P1;PMS_P2;Temp;Humidity;BMP_temperature;BMP_pressure;BME280_temperature;BME280_humidity;BME280_pressure;Samples;Min_cycle;Max_cycle;Signal;HPM_P1;HPM_P2
2021/12/16 00:08:06;;;;;;;;;;;;;;;10.69;74.61;101452.34;5053598;28;19936;-59
2021/12/16 00:10:40;;;;;;;;;;;;;;;10.66;74.37;101454.22;5053438;28;19925;-61
2021/12/16 00:30:10;;;;;;;;;;;;;;;10.52;74.46;101465.13;5053133;28;19966;-62
2021/12/16 00:32:59;;;;;;;;;;;;;;;10.52;74.99;101462.50;5053108;28;20391;-63
2021/12/16 00:35:23;;;;;;;;;;;;;;;10.52;75.07;101467.78;5053198;28;19924;-60
2021/12/16 00:37:50;;;;;;;;;;;;;;;10.51;74.87;101466.06;5052971;28;19947;-60
2021/12/16 00:40:16;;;;;;;;;;;;;;;10.51;74.74;101466.06;5053112;28;19920;-60
2021/12/16 00:48:02;;;;;;;;;;;;;;;10.46;74.80;101476.72;5053051;28;19928;-61
2021/12/16 00:55:52;;;;;;;;;;;;;;;10.43;75.05;101477.63;5052877;28;19925;-61
2021/12/16 00:58:21;;;;;;;;;;;;;;;10.43;74.95;101476.75;5051658;28;19963;-60
2021/12/16 01:00:56;;;;;;;;;;;;;;;10.41;74.95;101468.94;5052019;28;19928;-61
2021/12/16 01:09:01;;;;;;;;;;;;;;;10.36;74.88;101472.59;5052639;28;19932;-60
2021/12/16 01:51:54;;;;;;;;;;;;;;;10.59;75.90;101486.88;5052103;28;19927;-60
2021/12/16 01:57:13;;;;;;;;;;;;;;;10.62;76.07;101486.81;5051600;28;19929;-60
2021/12/16 01:59:44;;;;;;;;;;;;;;;10.63;75.92;101489.41;5051144;28;20478;-60
2021/12/16 02:02:21;;;;;;;;;;;;;;;10.65;76.18;101492.00;5051635;28;19921;-59
2021/12/16 02:10:22;;;;;;;;;;;;;;;10.71;76.08;101514.63;5051415;28;19928;-63
2021/12/16 02:29:17;;;;;;;;;;;;;;;10.85;76.13;101525.66;5051125;28;20550;-61
2021/12/16 02:36:55;;;;;;;;;;;;;;;10.89;75.71;101523.78;5050909;28;19974;-61
2021/12/16 02:39:24;;;;;;;;;;;;;;;10.89;75.95;101518.50;5050844;28;19920;-61
2021/12/16 02:41:52;;;;;;;;;;;;;;;10.88;75.37;101519.41;5050878;28;19925;-61
2021/12/16 02:49:47;;;;;;;;;;;;;;;10.87;75.79;101536.16;5050900;28;20319;-61
2021/12/16 02:52:15;;;;;;;;;;;;;;;10.87;75.77;101538.78;5049260;28;20375;-60
2021/12/16 02:54:42;;;;;;;;;;;;;;;10.87;75.72;101539.63;5051211;28;20284;-61
2021/12/16 02:57:08;;;;;;;;;;;;;;;10.88;75.79;101537.88;5050873;28;19929;-61
2021/12/16 02:59:35;;;;;;;;;;;;;;;10.88;75.97;101538.69;5051243;28;19940;-60
2021/12/16 03:02:07;;;;;;;;;;;;;;;10.89;75.84;101540.44;5050812;28;19975;-61
2021/12/16 03:04:34;;;;;;;;;;;;;;;10.91;76.03;101536.00;5050790;28;19931;-60
2021/12/16 03:07:01;;;;;;;;;;;;;;;10.92;75.77;101536.88;5050695;28;19925;-60
2021/12/16 03:15:23;;;;;;;;;;;;;;;10.92;75.54;101528.97;5049188;28;20733;-60
2021/12/16 03:18:04;;;;;;;;;;;;;;;10.92;75.72;101528.97;5050579;28;19974;-60
2021/12/16 03:38:14;;;;;;;;;;;;;;;10.92;75.41;101527.16;5050457;28;19932;-61
2021/12/16 03:40:40;;;;;;;;;;;;;;;10.92;75.49;101536.88;5050197;28;19920;-60
2021/12/16 03:43:07;;;;;;;;;;;;;;;10.89;75.47;101543.09;5050267;28;19933;-61
2021/12/16 03:48:28;;;;;;;;;;;;;;;10.90;75.79;101542.16;5050407;28;19967;-62
2021/12/16 03:50:55;;;;;;;;;;;;;;;10.91;76.16;101535.13;5048834;28;19920;-60
2021/12/16 03:53:21;;;;;;;;;;;;;;;10.92;75.82;101534.22;5050183;28;19924;-59
2021/12/16 03:55:49;;;;;;;;;;;;;;;10.94;75.97;101529.75;5052334;28;20015;-60
2021/12/16 03:58:16;;;;;;;;;;;;;;;10.96;75.98;101527.97;5053872;28;19955;-62
2021/12/16 04:00:45;;;;;;;;;;;;;;;10.95;76.03;101527.09;5053744;28;20277;-60
2021/12/16 04:03:12;;;;;;;;;;;;;;;10.97;76.07;101540.22;5053931;28;19956;-60
2021/12/16 04:05:40;;;;;;;;;;;;;;;10.99;76.04;101532.28;5053587;28;19986;-60
2021/12/16 04:08:06;;;;;;;;;;;;;;;11.00;76.01;101534.88;5053990;28;19967;-61
2021/12/16 04:10:39;;;;;;;;;;;;;;;11.01;75.98;101543.63;5053316;28;19966;-60
2021/12/16 04:13:07;;;;;;;;;;;;;;;11.01;76.29;101536.59;5052507;28;19924;-61
2021/12/16 04:15:34;;;;;;;;;;;;;;;11.04;76.11;101535.63;5053645;28;19960;-60
2021/12/16 04:18:01;;;;;;;;;;;;;;;11.04;76.17;101530.34;5053666;28;19925;-62
2021/12/16 04:20:28;;;;;;;;;;;;;;;11.04;75.83;101536.50;5052064;28;19920;-60
2021/12/16 04:22:55;;;;;;;;;;;;;;;11.06;76.08;101539.94;5053310;28;20419;-61
2021/12/16 04:25:23;;;;;;;;;;;;;;;11.06;76.00;101547.84;5052137;28;19975;-61
2021/12/16 04:27:53;;;;;;;;;;;;;;;11.08;76.15;101550.44;5053297;28;19924;-60
2021/12/16 04:30:21;;;;;;;;;;;;;;;11.08;76.02;101553.94;5052976;28;19928;-60
2021/12/16 04:32:48;;;;;;;;;;;;;;;11.10;75.83;101550.38;5053121;28;19929;-60
2021/12/16 04:35:15;;;;;;;;;;;;;;;11.10;76.04;101555.66;5053094;28;19994;-60
2021/12/16 04:37:41;;;;;;;;;;;;;;;11.10;76.06;101561.78;5053354;28;19931;-60
2021/12/16 04:40:09;;;;;;;;;;;;;;;11.11;75.84;101575.84;5052815;28;19932;-61
2021/12/16 04:42:37;;;;;;;;;;;;;;;11.12;76.20;101559.97;5052886;28;20384;-61
2021/12/16 04:45:06;;;;;;;;;;;;;;;11.13;76.10;101560.81;5052995;28;19936;-60
2021/12/16 04:47:34;;;;;;;;;;;;;;;11.15;76.09;101567.81;5052955;28;19936;-60
2021/12/16 04:50:01;;;;;;;;;;;;;;;11.16;75.98;101568.66;5052559;28;19990;-61
2021/12/16 04:52:27;;;;;;;;;;;;;;;11.16;76.02;101587.97;5052713;28;20398;-60
2021/12/16 04:54:54;;;;;;;;;;;;;;;11.17;75.96;101578.28;5053043;28;20339;-61
2021/12/16 04:57:20;;;;;;;;;;;;;;;11.17;76.13;101581.78;5052752;28;20377;-60
2021/12/16 04:59:47;;;;;;;;;;;;;;;11.17;76.02;101586.19;5052545;28;19924;-62
2021/12/16 05:02:15;;;;;;;;;;;;;;;11.17;76.13;101584.41;5052398;28;19924;-61
2021/12/16 05:04:42;;;;;;;;;;;;;;;11.17;75.96;101579.16;5052697;28;19932;-60
2021/12/16 05:07:09;;;;;;;;;;;;;;;11.17;76.02;101573.88;5051519;28;19921;-60
2021/12/16 05:12:13;;;;;;;;;;;;;;;11.17;75.99;101594.97;5052405;28;19921;-60
2021/12/16 05:14:40;;;;;;;;;;;;;;;11.17;75.89;101584.41;5051283;28;19924;-61
2021/12/16 05:17:15;;;;;;;;;;;;;;;11.17;75.61;101573.00;5052419;28;19920;-60
2021/12/16 05:19:49;;;;;;;;;;;;;;;11.15;75.70;101588.88;5052349;28;19920;-60
2021/12/16 05:25:01;;;;;;;;;;;;;;;11.15;75.87;101606.47;5052244;28;19932;-61
2021/12/16 05:27:27;;;;;;;;;;;;;;;11.14;75.79;101596.84;5052049;28;19921;-62
2021/12/16 05:29:54;;;;;;;;;;;;;;;11.15;75.80;101598.56;5051815;28;20269;-61
2021/12/16 05:32:24;;;;;;;;;;;;;;;11.12;75.01;101596.88;5052214;28;20402;-60
2021/12/16 05:34:51;;;;;;;;;;;;;;;11.11;75.27;101591.66;5051896;28;19924;-61
2021/12/16 05:37:17;;;;;;;;;;;;;;;11.08;75.19;101597.88;5051973;28;20430;-60
2021/12/16 05:39:44;;;;;;;;;;;;;;;11.07;75.47;101607.53;5051848;28;19929;-61
2021/12/16 05:42:10;;;;;;;;;;;;;;;11.06;75.66;101605.81;5051618;28;19928;-61
2021/12/16 05:44:37;;;;;;;;;;;;;;;11.05;75.49;101612.00;5052024;28;19924;-61
2021/12/16 05:47:04;;;;;;;;;;;;;;;11.04;75.47;101619.94;5051637;28;20476;-61
2021/12/16 05:49:31;;;;;;;;;;;;;;;11.03;75.54;101613.81;5051585;28;20004;-61
2021/12/16 05:51:58;;;;;;;;;;;;;;;11.03;75.67;101623.50;5051662;28;20316;-60
2021/12/16 05:54:24;;;;;;;;;;;;;;;11.03;75.79;101624.34;5051753;28;19929;-63
2021/12/16 05:56:51;;;;;;;;;;;;;;;11.04;75.78;101623.47;5051466;28;19932;-61
2021/12/16 05:59:18;;;;;;;;;;;;;;;11.05;75.93;101633.09;5051656;28;19924;-61
2021/12/16 06:01:46;;;;;;;;;;;;;;;11.06;76.00;101637.44;5051916;28;19924;-61
2021/12/16 06:04:13;;;;;;;;;;;;;;;11.07;75.89;101641.78;5051398;28;19955;-61
2021/12/16 06:06:40;;;;;;;;;;;;;;;11.08;75.89;101635.66;5051599;28;20000;-61
2021/12/16 06:09:08;;;;;;;;;;;;;;;11.08;75.92;101638.28;5051172;28;19928;-64
2021/12/16 06:11:35;;;;;;;;;;;;;;;11.10;76.07;101647.91;5051282;28;20364;-63
2021/12/16 06:27:37;;;;;;;;;;;;;;;11.14;75.73;101652.19;5050134;28;19921;-61
2021/12/16 06:30:05;;;;;;;;;;;;;;;11.13;75.80;101656.56;5051407;28;19975;-60
2021/12/16 06:32:32;;;;;;;;;;;;;;;11.14;75.86;101658.31;5051014;28;19924;-61
2021/12/16 06:34:58;;;;;;;;;;;;;;;11.15;75.98;101662.69;5051064;28;19921;-60
2021/12/16 06:37:25;;;;;;;;;;;;;;;11.14;75.99;101668.00;5050972;28;20359;-62
2021/12/16 06:39:52;;;;;;;;;;;;;;;11.16;75.94;101660.91;5050747;28;19928;-61
2021/12/16 06:42:19;;;;;;;;;;;;;;;11.16;75.99;101656.50;5049726;28;19963;-60
2021/12/16 06:44:56;;;;;;;;;;;;;;;11.16;75.98;101661.78;5050726;28;19924;-62
2021/12/16 06:47:31;;;;;;;;;;;;;;;11.17;76.01;101673.16;5049653;28;19920;-61
2021/12/16 06:49:58;;;;;;;;;;;;;;;11.16;75.77;101676.72;5050893;28;19970;-62
2021/12/16 06:52:32;;;;;;;;;;;;;;;11.16;75.89;101682.84;5049744;28;19960;-60
2021/12/16 06:55:10;;;;;;;;;;;;;;;11.16;76.05;101679.34;5050911;28;19921;-60
2021/12/16 06:57:44;;;;;;;;;;;;;;;11.17;75.88;101681.94;5049815;28;19928;-61
2021/12/16 07:00:19;;;;;;;;;;;;;;;11.17;75.88;101676.66;5049178;28;19921;-61
2021/12/16 07:02:57;;;;;;;;;;;;;;;11.16;75.88;101680.22;5049992;28;19925;-60
2021/12/16 07:05:26;;;;;;;;;;;;;;;11.18;75.94;101688.09;5050720;28;19928;-60
2021/12/16 07:07:53;;;;;;;;;;;;;;;11.17;75.78;101695.13;5048907;28;19921;-61
2021/12/16 07:10:20;;;;;;;;;;;;;;;11.17;76.11;101700.38;5049681;28;19932;-60
2021/12/16 07:12:48;;;;;;;;;;;;;;;11.18;76.08;101710.03;5048845;28;20266;-63
2021/12/16 07:15:21;;;;;;;;;;;;;;;11.20;76.10;101709.97;5050157;28;19921;-61
2021/12/16 07:17:49;;;;;;;;;;;;;;;11.21;76.15;101711.69;5050372;28;19921;-60
2021/12/16 07:20:18;;;;;;;;;;;;;;;11.22;76.02;101713.47;5050009;28;20323;-61
2021/12/16 07:22:44;;;;;;;;;;;;;;;11.23;76.17;101714.31;5049237;28;19982;-62
2021/12/16 07:25:11;;;;;;;;;;;;;;;11.23;76.03;101733.63;5049223;28;19924;-61
2021/12/16 07:27:37;;;;;;;;;;;;;;;11.25;76.33;101733.59;5050409;28;19966;-60
2021/12/16 07:30:08;;;;;;;;;;;;;;;11.25;76.25;101734.44;5051487;28;19925;-63
2021/12/16 07:32:35;;;;;;;;;;;;;;;11.27;76.31;101737.03;5054381;28;19925;-62
2021/12/16 07:35:03;;;;;;;;;;;;;;;11.29;76.38;101740.50;5054482;28;20006;-60
2021/12/16 07:37:30;;;;;;;;;;;;;;;11.30;76.43;101748.38;5054976;28;20372;-62
2021/12/16 07:39:57;;;;;;;;;;;;;;;11.32;76.45;101751.81;5054210;28;19924;-63
2021/12/16 07:42:28;;;;;;;;;;;;;;;11.34;76.38;101757.91;5054193;28;20023;-62
2021/12/16 07:44:55;;;;;;;;;;;;;;;11.36;76.44;101757.03;5054036;28;19929;-62
2021/12/16 07:47:22;;;;;;;;;;;;;;;11.36;76.25;101760.50;5054269;28;19924;-61
2021/12/16 07:49:48;;;;;;;;;;;;;;;11.37;76.46;101764.88;5053810;28;19943;-62
2021/12/16 07:52:16;;;;;;;;;;;;;;;11.39;76.35;101767.47;5054026;28;20018;-63
2021/12/16 07:54:43;;;;;;;;;;;;;;;11.41;76.27;101776.22;5053997;28;19929;-62
2021/12/16 07:57:10;;;;;;;;;;;;;;;11.42;76.47;101773.53;5053768;28;19921;-61
2021/12/16 07:59:38;;;;;;;;;;;;;;;11.44;76.49;101771.69;5052539;28;19943;-60
2021/12/16 08:02:08;;;;;;;;;;;;;;;11.44;76.40;101763.78;5052852;28;19928;-61
2021/12/16 08:04:41;;;;;;;;;;;;;;;11.45;76.21;101767.31;5052744;28;19974;-61
2021/12/16 08:07:09;;;;;;;;;;;;;;;11.47;76.20;101768.09;5053858;28;19976;-61
2021/12/16 08:09:37;;;;;;;;;;;;;;;11.47;76.33;101754.94;5052186;28;19932;-63
2021/12/16 08:12:04;;;;;;;;;;;;;;;11.49;76.29;101754.88;5053327;28;19928;-60
2021/12/16 08:14:31;;;;;;;;;;;;;;;11.49;76.19;101757.53;5053726;28;19998;-61
2021/12/16 08:16:58;;;;;;;;;;;;;;;11.50;76.26;101759.25;5053713;28;19925;-61
2021/12/16 08:19:24;;;;;;;;;;;;;;;11.49;76.00;101761.03;5053410;28;20400;-61
2021/12/16 08:21:51;;;;;;;;;;;;;;;11.49;75.80;101752.25;5053395;28;19921;-61
2021/12/16 08:24:17;;;;;;;;;;;;;;;11.46;75.57;101755.84;5053653;28;20315;-65
2021/12/16 08:26:46;;;;;;;;;;;;;;;11.44;75.46;101773.50;5053064;28;19932;-61
2021/12/16 08:29:12;;;;;;;;;;;;;;;11.40;75.64;101779.75;5053384;28;19943;-61
2021/12/16 08:31:39;;;;;;;;;;;;;;;11.39;75.76;101780.66;5053315;28;19927;-61
2021/12/16 08:34:06;;;;;;;;;;;;;;;11.37;75.80;101780.72;5053278;28;20379;-62
2021/12/16 08:36:33;;;;;;;;;;;;;;;11.37;75.92;101778.06;5053106;28;19978;-61
2021/12/16 08:39:01;;;;;;;;;;;;;;;11.38;75.92;101784.19;5053759;28;19925;-62
2021/12/16 08:41:33;;;;;;;;;;;;;;;11.38;75.89;101787.72;5052565;28;19924;-62
2021/12/16 08:44:00;;;;;;;;;;;;;;;11.37;75.95;101790.38;5053565;28;19928;-61
2021/12/16 08:46:29;;;;;;;;;;;;;;;11.38;76.18;101792.09;5053074;28;19966;-61
2021/12/16 08:48:55;;;;;;;;;;;;;;;11.40;75.88;101793.78;5052821;28;19966;-61
2021/12/16 08:51:24;;;;;;;;;;;;;;;11.42;76.18;101792.00;5052727;28;20365;-61
2021/12/16 08:53:51;;;;;;;;;;;;;;;11.43;76.28;101799.00;5052739;28;19928;-61
2021/12/16 08:56:18;;;;;;;;;;;;;;;11.45;75.99;101793.69;5052703;28;19931;-63
2021/12/16 08:58:45;;;;;;;;;;;;;;;11.45;76.09;101796.31;5052946;28;19955;-62
2021/12/16 09:01:14;;;;;;;;;;;;;;;11.48;76.33;101796.25;5052665;28;19921;-61
2021/12/16 09:03:40;;;;;;;;;;;;;;;11.49;76.18;101792.69;5052747;28;19925;-62
2021/12/16 09:06:08;;;;;;;;;;;;;;;11.51;76.39;101793.50;5052567;28;19971;-61
2021/12/16 09:08:35;;;;;;;;;;;;;;;11.54;76.44;101797.81;5052498;28;19935;-63
2021/12/16 09:11:04;;;;;;;;;;;;;;;11.56;76.34;101791.59;5051090;28;20001;-61
2021/12/16 09:13:32;;;;;;;;;;;;;;;11.58;76.26;101788.91;5051309;28;19924;-61
2021/12/16 09:16:00;;;;;;;;;;;;;;;11.60;76.41;101793.22;5052374;28;19924;-62
2021/12/16 09:18:29;;;;;;;;;;;;;;;11.62;76.35;101798.47;5052504;28;19924;-61
2021/12/16 09:20:56;;;;;;;;;;;;;;;11.65;76.53;101803.66;5052437;28;19932;-61
2021/12/16 09:23:27;;;;;;;;;;;;;;;11.68;76.02;101810.63;5052281;28;19978;-61
2021/12/16 09:25:54;;;;;;;;;;;;;;;11.71;75.90;101813.19;5052261;28;19928;-61
2021/12/16 09:28:21;;;;;;;;;;;;;;;11.71;76.15;101824.56;5052063;28;20019;-63
2021/12/16 09:30:48;;;;;;;;;;;;;;;11.73;76.16;101832.44;5052111;28;20336;-61
2021/12/16 09:33:18;;;;;;;;;;;;;;;11.74;76.28;101836.84;5052006;28;19947;-61
2021/12/16 09:35:46;;;;;;;;;;;;;;;11.76;76.33;101836.78;5051147;28;19932;-61
2021/12/16 09:38:14;;;;;;;;;;;;;;;11.79;76.44;101842.84;5052077;28;19990;-61
2021/12/16 09:40:48;;;;;;;;;;;;;;;11.81;76.46;101843.66;5051879;28;19925;-60
2021/12/16 09:43:15;;;;;;;;;;;;;;;11.82;76.49;101850.66;5051978;28;20380;-62
2021/12/16 09:45:49;;;;;;;;;;;;;;;11.85;76.33;101844.44;5050722;28;19943;-60
2021/12/16 09:48:16;;;;;;;;;;;;;;;11.86;76.43;101847.03;5052053;28;19925;-61
2021/12/16 09:50:43;;;;;;;;;;;;;;;11.88;76.24;101849.63;5051593;28;19920;-61
2021/12/16 09:53:09;;;;;;;;;;;;;;;11.90;76.35;101863.66;5051252;28;19924;-61
2021/12/16 09:55:36;;;;;;;;;;;;;;;11.91;76.32;101862.75;5051615;28;20007;-61
2021/12/16 09:58:03;;;;;;;;;;;;;;;11.93;76.39;101867.97;5051791;28;19975;-61
2021/12/16 10:00:30;;;;;;;;;;;;;;;11.95;76.26;101866.13;5051379;28;19924;-62
2021/12/16 10:02:58;;;;;;;;;;;;;;;11.95;76.34;101864.38;5051741;28;20007;-61
2021/12/16 10:05:26;;;;;;;;;;;;;;;11.96;76.23;101859.97;5050535;28;20011;-61
2021/12/16 10:07:53;;;;;;;;;;;;;;;11.98;76.20;101863.41;5051533;28;19927;-61
2021/12/16 10:10:24;;;;;;;;;;;;;;;11.99;76.19;101857.22;5051382;28;19994;-61
2021/12/16 10:12:54;;;;;;;;;;;;;;;12.02;76.14;101862.44;5050096;28;20019;-62
2021/12/16 10:18:01;;;;;;;;;;;;;;;12.04;75.88;101862.38;5051582;28;19927;-61
2021/12/16 10:20:33;;;;;;;;;;;;;;;12.04;76.02;101857.09;5051112;28;19924;-62
2021/12/16 10:23:29;;;;;;;;;;;;;;;12.05;76.07;101862.38;5050191;28;20051;-61
2021/12/16 10:25:57;;;;;;;;;;;;;;;12.06;76.30;101866.75;5051349;28;19966;-61
2021/12/16 10:28:28;;;;;;;;;;;;;;;12.08;76.18;101872.81;5051467;28;19951;-60
2021/12/16 10:31:03;;;;;;;;;;;;;;;12.11;76.31;101867.47;5049667;28;19929;-62
2021/12/16 10:33:50;;;;;;;;;;;;;;;12.12;76.21;101866.53;5051153;28;20327;-61
2021/12/16 10:36:17;;;;;;;;;;;;;;;12.14;75.97;101877.06;5049929;28;19928;-61
2021/12/16 10:38:52;;;;;;;;;;;;;;;12.16;75.94;101869.09;5051300;28;19932;-60
2021/12/16 10:41:27;;;;;;;;;;;;;;;12.17;76.02;101862.91;5050585;28;19924;-63
2021/12/16 10:43:56;;;;;;;;;;;;;;;12.17;76.08;101874.34;5049784;28;19921;-62
2021/12/16 10:46:24;;;;;;;;;;;;;;;12.19;76.11;101877.78;5050752;28;19924;-61
2021/12/16 10:48:59;;;;;;;;;;;;;;;12.21;75.95;101872.47;5049925;28;19921;-62
2021/12/16 10:51:32;;;;;;;;;;;;;;;12.23;75.96;101874.16;5050786;28;19925;-62
2021/12/16 10:54:11;;;;;;;;;;;;;;;12.25;76.13;101874.97;5050958;28;19920;-62
2021/12/16 10:56:37;;;;;;;;;;;;;;;12.28;76.03;101881.06;5050679;28;20002;-61
2021/12/16 10:59:06;;;;;;;;;;;;;;;12.30;76.01;101882.75;5050833;28;20403;-61
2021/12/16 11:01:38;;;;;;;;;;;;;;;12.31;75.89;101879.22;5050893;28;19975;-61
2021/12/16 11:04:10;;;;;;;;;;;;;;;12.33;75.97;101887.94;5052150;28;19924;-63
2021/12/16 11:06:39;;;;;;;;;;;;;;;12.35;76.18;101886.13;5053401;28;19925;-61
2021/12/16 11:09:27;;;;;;;;;;;;;;;12.37;76.25;101886.94;5054856;28;19921;-62
2021/12/16 11:12:12;;;;;;;;;;;;;;;12.41;76.20;101884.22;5053879;28;19927;-61
2021/12/16 11:14:40;;;;;;;;;;;;;;;12.45;76.34;101896.41;5053632;28;20254;-61
2021/12/16 11:17:09;;;;;;;;;;;;;;;12.47;76.29;101900.75;5054469;28;19921;-61
2021/12/16 11:19:41;;;;;;;;;;;;;;;12.53;76.32;101904.09;5053136;28;20373;-62
2021/12/16 11:22:09;;;;;;;;;;;;;;;12.54;76.25;101898.78;5053136;28;19925;-63
2021/12/16 11:24:35;;;;;;;;;;;;;;;12.56;76.30;101899.59;5054614;28;20411;-62
2021/12/16 11:27:20;;;;;;;;;;;;;;;12.59;76.13;101894.22;5054427;28;19932;-62
2021/12/16 11:29:46;;;;;;;;;;;;;;;12.59;76.00;101899.50;5054364;28;19928;-61
2021/12/16 11:32:36;;;;;;;;;;;;;;;12.60;76.01;101906.50;5054275;28;20327;-62
2021/12/16 11:35:21;;;;;;;;;;;;;;;12.61;75.96;101902.97;5051417;28;20328;-61
2021/12/16 11:37:48;;;;;;;;;;;;;;;12.63;76.00;101900.25;5054213;28;19920;-62
2021/12/16 11:40:16;;;;;;;;;;;;;;;12.64;75.98;101899.38;5054078;28;19951;-61
2021/12/16 11:42:43;;;;;;;;;;;;;;;12.66;76.07;101899.28;5054538;28;19929;-60
2021/12/16 11:45:09;;;;;;;;;;;;;;;12.68;75.89;101897.47;5054247;28;19929;-61
2021/12/16 11:47:45;;;;;;;;;;;;;;;12.70;76.01;101899.16;5054308;28;19967;-61
2021/12/16 11:50:12;;;;;;;;;;;;;;;12.72;75.89;101888.53;5054408;28;20273;-62
2021/12/16 11:52:40;;;;;;;;;;;;;;;12.73;75.84;101885.84;5053956;28;19924;-63
2021/12/16 11:55:12;;;;;;;;;;;;;;;12.75;75.93;101888.47;5053803;28;19931;-62
2021/12/16 11:57:41;;;;;;;;;;;;;;;12.77;75.99;101897.19;5052902;28;19927;-60
2021/12/16 12:00:13;;;;;;;;;;;;;;;12.79;75.96;101902.44;5054278;28;19925;-61
2021/12/16 12:02:40;;;;;;;;;;;;;;;12.80;75.94;101896.22;5053883;28;20403;-62
2021/12/16 12:05:15;;;;;;;;;;;;;;;12.81;75.84;101900.59;5053871;28;19921;-68
2021/12/16 12:07:43;;;;;;;;;;;;;;;12.80;75.92;101902.38;5053718;28;19925;-60
2021/12/16 12:10:09;;;;;;;;;;;;;;;12.81;75.89;101911.16;5053847;28;19927;-61
2021/12/16 12:12:40;;;;;;;;;;;;;;;12.82;75.79;101904.97;5053701;28;19928;-62
2021/12/16 12:15:08;;;;;;;;;;;;;;;12.82;75.67;101903.19;5052084;28;19927;-61
2021/12/16 12:17:50;;;;;;;;;;;;;;;12.82;75.75;101905.81;5053123;28;19954;-63
2021/12/16 12:20:18;;;;;;;;;;;;;;;12.82;75.64;101907.63;5053352;28;19921;-61
2021/12/16 12:22:49;;;;;;;;;;;;;;;12.82;75.59;101911.09;5053449;28;19924;-61
2021/12/16 12:25:16;;;;;;;;;;;;;;;12.79;75.48;101895.38;5052333;28;19928;-61
2021/12/16 12:27:42;;;;;;;;;;;;;;;12.80;75.43;101904.16;5053470;28;19921;-62
2021/12/16 12:30:09;;;;;;;;;;;;;;;12.79;75.38;101905.06;5053092;28;20372;-61
2021/12/16 12:32:38;;;;;;;;;;;;;;;12.77;75.47;101911.28;5053456;28;20007;-61
2021/12/16 12:35:13;;;;;;;;;;;;;;;12.76;75.52;101908.69;5053180;28;20278;-62
2021/12/16 12:37:42;;;;;;;;;;;;;;;12.75;75.46;101901.66;5053687;28;19925;-61
2021/12/16 12:40:13;;;;;;;;;;;;;;;12.74;75.25;101897.28;5053127;28;19920;-60
2021/12/16 12:42:40;;;;;;;;;;;;;;;12.74;75.49;101905.19;5052013;28;19925;-61
2021/12/16 12:45:09;;;;;;;;;;;;;;;12.73;75.49;101901.72;5053388;28;19978;-61
2021/12/16 12:47:37;;;;;;;;;;;;;;;12.73;75.38;101895.56;5053089;28;20305;-63
2021/12/16 12:50:06;;;;;;;;;;;;;;;12.73;75.28;101890.25;5052901;28;19932;-64
2021/12/16 12:52:33;;;;;;;;;;;;;;;12.72;75.27;101892.06;5053202;28;20439;-62
2021/12/16 12:55:01;;;;;;;;;;;;;;;12.72;75.39;101899.13;5052798;28;20273;-61
2021/12/16 12:57:30;;;;;;;;;;;;;;;12.71;75.60;101903.53;5051592;28;19921;-64
2021/12/16 12:59:57;;;;;;;;;;;;;;;12.71;75.50;101900.03;5052616;28;19924;-61
2021/12/16 13:02:26;;;;;;;;;;;;;;;12.72;75.64;101901.75;5052874;28;19978;-61
2021/12/16 13:05:15;;;;;;;;;;;;;;;12.73;75.68;101900.84;5051422;28;19920;-61
2021/12/16 13:07:51;;;;;;;;;;;;;;;12.73;75.64;101895.56;5052489;28;20388;-62
2021/12/16 13:10:21;;;;;;;;;;;;;;;12.73;75.63;101900.84;5052317;28;19924;-61
2021/12/16 13:13:04;;;;;;;;;;;;;;;12.74;75.71;101902.56;5052684;28;20300;-61
2021/12/16 13:15:43;;;;;;;;;;;;;;;12.74;75.53;101898.16;5052473;28;19925;-61
2021/12/16 13:23:39;;;;;;;;;;;;;;;12.72;75.11;101899.13;5052440;28;19925;-61
2021/12/16 13:28:55;;;;;;;;;;;;;;;12.68;75.43;101902.75;5051501;28;19920;-60
2021/12/16 13:31:50;;;;;;;;;;;;;;;12.68;75.40;101889.56;5052083;28;19921;-61
2021/12/16 13:34:26;;;;;;;;;;;;;;;12.68;75.52;101885.16;5052183;28;19920;-62
2021/12/16 13:36:56;;;;;;;;;;;;;;;12.68;75.24;101881.63;5051887;28;20335;-63
2021/12/16 13:39:24;;;;;;;;;;;;;;;12.68;75.20;101881.63;5051953;28;20386;-61
2021/12/16 13:42:05;;;;;;;;;;;;;;;12.67;75.32;101874.63;5052139;28;20377;-61
2021/12/16 13:44:38;;;;;;;;;;;;;;;12.66;75.05;101875.50;5051982;28;19920;-61
2021/12/16 13:47:33;;;;;;;;;;;;;;;12.65;75.06;101882.59;5050672;28;19931;-61
2021/12/16 14:05:03;;;;;;;;;;;;;;;12.45;74.59;101864.72;5051489;28;19928;-62
2021/12/16 14:07:56;;;;;;;;;;;;;;;12.43;74.96;101874.47;5051570;28;20011;-61
2021/12/16 14:10:50;;;;;;;;;;;;;;;12.42;74.98;101867.44;5049931;28;20373;-61
2021/12/16 14:25:03;;;;;;;;;;;;;;;12.33;75.14;101880.03;5051786;28;19924;-61
2021/12/16 14:39:02;;;;;;;;;;;;;;;12.35;75.54;101894.06;5048089;28;19925;-61
2021/12/16 14:47:13;;;;;;;;;;;;;;;12.34;75.19;101910.78;5051103;28;19920;-61
2021/12/16 14:49:41;;;;;;;;;;;;;;;12.33;75.46;101919.63;5050715;28;19924;-61
2021/12/16 14:52:36;;;;;;;;;;;;;;;12.33;75.59;101916.13;5050831;28;19927;-63
2021/12/16 14:55:05;;;;;;;;;;;;;;;12.32;75.51;101917.91;5050136;28;19953;-61
2021/12/16 14:57:36;;;;;;;;;;;;;;;12.33;75.50;101918.75;5050799;28;20369;-61
2021/12/16 15:00:09;;;;;;;;;;;;;;;12.32;75.47;101917.91;5050772;28;19925;-62
2021/12/16 15:02:38;;;;;;;;;;;;;;;12.32;75.52;101909.13;5050570;28;20310;-62
2021/12/16 15:05:19;;;;;;;;;;;;;;;12.32;75.28;101911.75;5050657;28;19994;-61
2021/12/16 15:07:45;;;;;;;;;;;;;;;12.31;75.54;101916.19;5050762;28;19929;-61
2021/12/16 15:10:14;;;;;;;;;;;;;;;12.31;75.56;101917.97;5049352;28;19920;-61
2021/12/16 15:12:49;;;;;;;;;;;;;;;12.29;75.49;101928.56;5049571;28;19931;-62
2021/12/16 15:15:43;;;;;;;;;;;;;;;12.30;75.65;101932.06;5051106;28;20350;-61
2021/12/16 15:40:38;;;;;;;;;;;;;;;12.23;75.42;101963.06;5050036;28;19928;-60
2021/12/16 15:43:07;;;;;;;;;;;;;;;12.22;75.43;101953.41;5050679;28;19920;-60
2021/12/16 15:45:38;;;;;;;;;;;;;;;12.20;75.29;101964.03;5049307;28;20258;-61
2021/12/16 15:48:09;;;;;;;;;;;;;;;12.21;75.56;101964.88;5049519;28;20437;-60
2021/12/16 15:50:37;;;;;;;;;;;;;;;12.20;75.36;101971.06;5049424;28;19979;-62
2021/12/16 15:53:06;;;;;;;;;;;;;;;12.20;75.40;101971.06;5054030;28;19974;-61
2021/12/16 15:55:33;;;;;;;;;;;;;;;12.19;75.50;101969.34;5052723;28;19943;-62
2021/12/16 15:58:10;;;;;;;;;;;;;;;12.19;75.56;101977.28;5053999;28;19920;-60
2021/12/16 16:00:38;;;;;;;;;;;;;;;12.18;75.39;101968.47;5053839;28;19937;-61
2021/12/16 16:03:08;;;;;;;;;;;;;;;12.18;75.46;101967.63;5053568;28;20011;-61
2021/12/16 16:05:36;;;;;;;;;;;;;;;12.18;75.54;101972.91;5054044;28;19983;-61
2021/12/16 16:08:04;;;;;;;;;;;;;;;12.17;75.55;101981.72;5053857;28;19920;-61
2021/12/16 16:10:32;;;;;;;;;;;;;;;12.17;75.55;101989.63;5052453;28;19921;-60
2021/12/16 16:13:27;;;;;;;;;;;;;;;12.17;75.51;101994.91;5053581;28;19924;-61
2021/12/16 16:15:59;;;;;;;;;;;;;;;12.15;75.49;101992.31;5048512;28;20375;-61
2021/12/16 16:20:58;;;;;;;;;;;;;;;12.15;75.56;102000.22;5053240;28;20008;-61
2021/12/16 16:23:25;;;;;;;;;;;;;;;12.16;75.56;102009.03;5053421;28;19928;-62
2021/12/16 16:25:52;;;;;;;;;;;;;;;12.17;75.59;102008.13;5051902;28;19925;-62
2021/12/16 16:28:20;;;;;;;;;;;;;;;12.17;75.79;102010.75;5053231;28;20269;-61
2021/12/16 16:30:47;;;;;;;;;;;;;;;12.18;75.60;102010.72;5052928;28;19924;-61
2021/12/16 16:33:17;;;;;;;;;;;;;;;12.20;75.54;102013.31;5053421;28;19936;-61
2021/12/16 16:35:47;;;;;;;;;;;;;;;12.20;75.68;102010.69;5053221;28;19921;-61
2021/12/16 16:38:17;;;;;;;;;;;;;;;12.19;75.45;102017.72;5053241;28;20415;-60
2021/12/16 16:40:46;;;;;;;;;;;;;;;12.18;75.43;102020.44;5051874;28;20008;-61
2021/12/16 16:43:25;;;;;;;;;;;;;;;12.18;75.56;102021.28;5053419;28;19932;-61
2021/12/16 16:45:55;;;;;;;;;;;;;;;12.19;75.59;102027.44;5051876;28;19921;-61
2021/12/16 16:48:33;;;;;;;;;;;;;;;12.19;75.56;102032.72;5053343;28;19933;-62
2021/12/16 16:51:21;;;;;;;;;;;;;;;12.20;75.54;102035.31;5052908;28;20376;-62